sensor_id;sensor_type;location;lat;lon;timestamp;pressure;altitude;pressure_sealevel;temperature;humidity
80248;BME280;69560;52.206;21.018;2023-12-20T00:01:51;99339.31;;;7.38;70.79
80248;BME280;69560;52.206;21.018;2023-12-20T00:04:18;99343.00;;;7.37;70.84
80248;BME280;69560;52.206;21.018;2023-12-20T00:06:44;99340.67;;;7.40;70.89
80248;BME280;69560;52.206;21.018;2023-12-20T00:09:11;99330.26;;;7.39;70.78
80248;BME280;69560;52.206;21.018;2023-12-20T00:11:37;99328.57;;;7.37;70.81
80248;BME280;69560;52.206;21.018;2023-12-20T00:14:04;99324.70;;;7.36;70.92
80248;BME280;69560;52.206;21.018;2023-12-20T00:16:30;99320.77;;;7.32;70.74
80248;BME280;69560;52.206;21.018;2023-12-20T00:18:58;99320.59;;;7.27;70.75
80248;BME280;69560;52.206;21.018;2023-12-20T00:21:24;99321.23;;;7.28;71.03
80248;BME280;69560;52.206;21.018;2023-12-20T00:23:51;99320.83;;;7.27;70.95
80248;BME280;69560;52.206;21.018;2023-12-20T00:26:17;99319.08;;;7.31;71.12
80248;BME280;69560;52.206;21.018;2023-12-20T00:28:43;99320.45;;;7.33;71.09
80248;BME280;69560;52.206;21.018;2023-12-20T00:31:10;99317.65;;;7.30;71.10
80248;BME280;69560;52.206;21.018;2023-12-20T00:33:36;99314.21;;;7.32;71.12
80248;BME280;69560;52.206;21.018;2023-12-20T00:36:03;99310.98;;;7.32;71.16
80248;BME280;69560;52.206;21.018;2023-12-20T00:38:30;99312.27;;;7.38;71.46
80248;BME280;69560;52.206;21.018;2023-12-20T00:40:56;99308.56;;;7.42;71.30
80248;BME280;69560;52.206;21.018;2023-12-20T00:43:23;99310.15;;;7.48;71.42
80248;BME280;69560;52.206;21.018;2023-12-20T00:45:49;99311.06;;;7.50;71.24
80248;BME280;69560;52.206;21.018;2023-12-20T00:48:16;99307.23;;;7.47;71.15
80248;BME280;69560;52.206;21.018;2023-12-20T00:50:42;99298.31;;;7.42;70.97
80248;BME280;69560;52.206;21.018;2023-12-20T00:53:09;99297.39;;;7.43;71.20
80248;BME280;69560;52.206;21.018;2023-12-20T00:55:35;99298.61;;;7.42;71.02
80248;BME280;69560;52.206;21.018;2023-12-20T00:58:02;99296.21;;;7.39;71.00
80248;BME280;69560;52.206;21.018;2023-12-20T01:00:28;99295.10;;;7.39;71.17
80248;BME280;69560;52.206;21.018;2023-12-20T01:02:55;99294.05;;;7.38;71.27
80248;BME280;69560;52.206;21.018;2023-12-20T01:05:21;99288.14;;;7.38;71.34
80248;BME280;69560;52.206;21.018;2023-12-20T01:07:49;99285.86;;;7.42;71.44
80248;BME280;69560;52.206;21.018;2023-12-20T01:10:16;99291.92;;;7.46;71.51
80248;BME280;69560;52.206;21.018;2023-12-20T01:12:43;99293.53;;;7.49;71.40
80248;BME280;69560;52.206;21.018;2023-12-20T01:15:10;99283.94;;;7.46;71.28
80248;BME280;69560;52.206;21.018;2023-12-20T01:17:36;99278.52;;;7.37;71.20
80248;BME280;69560;52.206;21.018;2023-12-20T01:20:03;99283.09;;;7.37;71.26
80248;BME280;69560;52.206;21.018;2023-12-20T01:22:30;99285.89;;;7.40;71.40
80248;BME280;69560;52.206;21.018;2023-12-20T01:24:56;99285.13;;;7.42;71.37
80248;BME280;69560;52.206;21.018;2023-12-20T01:27:23;99277.20;;;7.44;71.50
80248;BME280;69560;52.206;21.018;2023-12-20T01:29:50;99279.90;;;7.44;71.40
80248;BME280;69560;52.206;21.018;2023-12-20T01:32:16;99275.96;;;7.39;71.24
80248;BME280;69560;52.206;21.018;2023-12-20T01:34:43;99273.95;;;7.38;71.30
80248;BME280;69560;52.206;21.018;2023-12-20T01:37:09;99270.48;;;7.38;71.38
80248;BME280;69560;52.206;21.018;2023-12-20T01:39:36;99270.52;;;7.39;71.35
80248;BME280;69560;52.206;21.018;2023-12-20T01:42:02;99267.80;;;7.37;71.28
80248;BME280;69560;52.206;21.018;2023-12-20T01:44:29;99267.37;;;7.35;71.35
80248;BME280;69560;52.206;21.018;2023-12-20T01:46:56;99266.48;;;7.34;71.41
80248;BME280;69560;52.206;21.018;2023-12-20T01:49:22;99263.77;;;7.37;71.69
80248;BME280;69560;52.206;21.018;2023-12-20T01:51:49;99260.28;;;7.40;71.68
80248;BME280;69560;52.206;21.018;2023-12-20T01:54:17;99261.98;;;7.42;71.65
80248;BME280;69560;52.206;21.018;2023-12-20T01:56:45;99255.08;;;7.45;71.63
80248;BME280;69560;52.206;21.018;2023-12-20T01:59:12;99256.39;;;7.49;71.66
80248;BME280;69560;52.206;21.018;2023-12-20T02:01:39;99252.95;;;7.50;71.60
80248;BME280;69560;52.206;21.018;2023-12-20T02:04:05;99248.98;;;7.53;71.81
80248;BME280;69560;52.206;21.018;2023-12-20T02:06:33;99251.58;;;7.58;71.75
80248;BME280;69560;52.206;21.018;2023-12-20T02:09:00;99254.41;;;7.68;71.89
80248;BME280;69560;52.206;21.018;2023-12-20T02:11:27;99253.44;;;7.71;71.87
80248;BME280;69560;52.206;21.018;2023-12-20T02:13:53;99247.58;;;7.75;71.78
80248;BME280;69560;52.206;21.018;2023-12-20T02:16:21;99243.98;;;7.78;71.77
80248;BME280;69560;52.206;21.018;2023-12-20T02:18:48;99243.02;;;7.86;71.74
80248;BME280;69560;52.206;21.018;2023-12-20T02:21:14;99239.27;;;7.90;71.62
80248;BME280;69560;52.206;21.018;2023-12-20T02:23:41;99239.77;;;7.92;71.43
80248;BME280;69560;52.206;21.018;2023-12-20T02:26:08;99238.30;;;7.94;71.44
80248;BME280;69560;52.206;21.018;2023-12-20T02:28:34;99240.20;;;7.95;71.42
80248;BME280;69560;52.206;21.018;2023-12-20T02:31:01;99231.73;;;7.94;71.25
80248;BME280;69560;52.206;21.018;2023-12-20T02:33:28;99223.79;;;7.94;71.28
80248;BME280;69560;52.206;21.018;2023-12-20T02:35:54;99214.76;;;7.98;71.39
80248;BME280;69560;52.206;21.018;2023-12-20T02:38:21;99215.60;;;8.02;71.28
80248;BME280;69560;52.206;21.018;2023-12-20T02:40:48;99215.02;;;8.00;70.96
80248;BME280;69560;52.206;21.018;2023-12-20T02:43:14;99214.52;;;7.97;70.90
80248;BME280;69560;52.206;21.018;2023-12-20T02:45:41;99203.02;;;7.93;70.88
80248;BME280;69560;52.206;21.018;2023-12-20T02:48:07;99206.42;;;7.94;71.09
80248;BME280;69560;52.206;21.018;2023-12-20T02:50:33;99211.02;;;7.95;70.97
80248;BME280;69560;52.206;21.018;2023-12-20T02:53:00;99209.71;;;7.98;71.05
80248;BME280;69560;52.206;21.018;2023-12-20T02:55:27;99206.34;;;8.00;70.94
80248;BME280;69560;52.206;21.018;2023-12-20T02:57:53;99194.63;;;7.96;70.75
80248;BME280;69560;52.206;21.018;2023-12-20T03:00:19;99196.25;;;7.95;70.69
80248;BME280;69560;52.206;21.018;2023-12-20T03:02:46;99194.95;;;7.92;70.59
80248;BME280;69560;52.206;21.018;2023-12-20T03:05:13;99203.48;;;7.85;70.36
80248;BME280;69560;52.206;21.018;2023-12-20T03:07:39;99203.52;;;7.82;70.51
80248;BME280;69560;52.206;21.018;2023-12-20T03:10:06;99203.56;;;7.81;70.51
80248;BME280;69560;52.206;21.018;2023-12-20T03:12:34;99200.00;;;7.79;70.70
80248;BME280;69560;52.206;21.018;2023-12-20T03:15:01;99198.73;;;7.79;70.72
80248;BME280;69560;52.206;21.018;2023-12-20T03:17:27;99198.77;;;7.81;70.84
80248;BME280;69560;52.206;21.018;2023-12-20T03:19:54;99188.36;;;7.82;70.69
80248;BME280;69560;52.206;21.018;2023-12-20T03:22:20;99183.45;;;7.80;70.55
80248;BME280;69560;52.206;21.018;2023-12-20T03:24:47;99194.26;;;7.80;70.69
80248;BME280;69560;52.206;21.018;2023-12-20T03:27:14;99203.25;;;7.80;70.69
80248;BME280;69560;52.206;21.018;2023-12-20T03:29:40;99200.53;;;7.84;70.88
80248;BME280;69560;52.206;21.018;2023-12-20T03:32:06;99196.86;;;7.87;70.64
80248;BME280;69560;52.206;21.018;2023-12-20T03:34:34;99188.30;;;7.89;70.71
80248;BME280;69560;52.206;21.018;2023-12-20T03:37:01;99181.96;;;7.94;70.80
80248;BME280;69560;52.206;21.018;2023-12-20T03:39:27;99190.09;;;7.94;70.69
80248;BME280;69560;52.206;21.018;2023-12-20T03:41:54;99185.52;;;7.94;70.61
80248;BME280;69560;52.206;21.018;2023-12-20T03:44:20;99180.15;;;7.94;70.61
80248;BME280;69560;52.206;21.018;2023-12-20T03:46:47;99181.54;;;7.97;70.60
80248;BME280;69560;52.206;21.018;2023-12-20T03:49:15;99181.38;;;8.03;70.73
80248;BME280;69560;52.206;21.018;2023-12-20T03:51:41;99182.67;;;8.06;70.73
80248;BME280;69560;52.206;21.018;2023-12-20T03:54:09;99186.55;;;8.08;70.70
80248;BME280;69560;52.206;21.018;2023-12-20T03:56:35;99187.05;;;8.09;70.67
80248;BME280;69560;52.206;21.018;2023-12-20T03:59:01;99185.69;;;8.08;70.61
80248;BME280;69560;52.206;21.018;2023-12-20T04:01:28;99187.56;;;8.06;70.32
80248;BME280;69560;52.206;21.018;2023-12-20T04:03:54;99183.98;;;8.04;70.23
80248;BME280;69560;52.206;21.018;2023-12-20T04:06:21;99174.02;;;8.02;70.30
80248;BME280;69560;52.206;21.018;2023-12-20T04:08:47;99171.41;;;8.01;70.36
80248;BME280;69560;52.206;21.018;2023-12-20T04:11:14;99180.09;;;8.01;70.39
80248;BME280;69560;52.206;21.018;2023-12-20T04:13:40;99182.94;;;8.02;70.34
80248;BME280;69560;52.206;21.018;2023-12-20T04:16:07;99175.48;;;7.99;70.20
80248;BME280;69560;52.206;21.018;2023-12-20T04:18:33;99176.27;;;7.98;70.18
80248;BME280;69560;52.206;21.018;2023-12-20T04:21:00;99184.26;;;7.94;70.08
80248;BME280;69560;52.206;21.018;2023-12-20T04:23:26;99188.59;;;7.93;70.13
80248;BME280;69560;52.206;21.018;2023-12-20T04:25:54;99178.44;;;7.89;70.14
80248;BME280;69560;52.206;21.018;2023-12-20T04:28:21;99178.84;;;7.85;70.25
80248;BME280;69560;52.206;21.018;2023-12-20T04:30:47;99182.45;;;7.82;70.16
80248;BME280;69560;52.206;21.018;2023-12-20T04:33:14;99181.88;;;7.80;70.24
80248;BME280;69560;52.206;21.018;2023-12-20T04:35:40;99176.00;;;7.78;70.25
80248;BME280;69560;52.206;21.018;2023-12-20T04:38:09;99173.61;;;7.77;70.45
80248;BME280;69560;52.206;21.018;2023-12-20T04:40:35;99172.70;;;7.78;70.60
80248;BME280;69560;52.206;21.018;2023-12-20T04:43:02;99183.77;;;7.81;70.72
80248;BME280;69560;52.206;21.018;2023-12-20T04:45:28;99185.14;;;7.83;70.74
80248;BME280;69560;52.206;21.018;2023-12-20T04:47:55;99181.42;;;7.83;70.62
80248;BME280;69560;52.206;21.018;2023-12-20T04:50:21;99182.58;;;7.87;70.75
80248;BME280;69560;52.206;21.018;2023-12-20T04:52:48;99182.34;;;7.85;70.60
80248;BME280;69560;52.206;21.018;2023-12-20T04:55:14;99181.00;;;7.86;70.67
80248;BME280;69560;52.206;21.018;2023-12-20T04:57:41;99182.26;;;7.86;70.73
80248;BME280;69560;52.206;21.018;2023-12-20T05:00:07;99183.47;;;7.87;70.63
80248;BME280;69560;52.206;21.018;2023-12-20T05:02:37;99179.10;;;7.92;70.74
80248;BME280;69560;52.206;21.018;2023-12-20T05:05:03;99176.09;;;7.97;70.90
80248;BME280;69560;52.206;21.018;2023-12-20T05:07:30;99176.63;;;8.02;70.90
80248;BME280;69560;52.206;21.018;2023-12-20T05:09:56;99171.64;;;8.07;71.03
80248;BME280;69560;52.206;21.018;2023-12-20T05:12:23;99171.20;;;8.10;70.93
80248;BME280;69560;52.206;21.018;2023-12-20T05:14:50;99175.10;;;8.13;70.95
80248;BME280;69560;52.206;21.018;2023-12-20T05:17:17;99172.14;;;8.15;70.86
80248;BME280;69560;52.206;21.018;2023-12-20T05:19:43;99165.92;;;8.18;70.85
80248;BME280;69560;52.206;21.018;2023-12-20T05:22:10;99163.63;;;8.23;70.91
80248;BME280;69560;52.206;21.018;2023-12-20T05:24:36;99161.36;;;8.24;70.71
80248;BME280;69560;52.206;21.018;2023-12-20T05:27:03;99169.58;;;8.21;70.36
80248;BME280;69560;52.206;21.018;2023-12-20T05:29:30;99165.65;;;8.15;70.30
80248;BME280;69560;52.206;21.018;2023-12-20T05:31:58;99159.72;;;8.13;70.61
80248;BME280;69560;52.206;21.018;2023-12-20T05:34:24;99162.36;;;8.16;70.62
80248;BME280;69560;52.206;21.018;2023-12-20T05:36:51;99156.54;;;8.19;70.51
80248;BME280;69560;52.206;21.018;2023-12-20T05:39:17;99159.16;;;8.20;70.51
80248;BME280;69560;52.206;21.018;2023-12-20T05:41:44;99160.73;;;8.20;70.51
80248;BME280;69560;52.206;21.018;2023-12-20T05:44:10;99160.89;;;8.18;70.42
80248;BME280;69560;52.206;21.018;2023-12-20T05:46:37;99163.44;;;8.15;70.39
80248;BME280;69560;52.206;21.018;2023-12-20T05:49:03;99160.41;;;8.11;70.25
80248;BME280;69560;52.206;21.018;2023-12-20T05:51:30;99160.38;;;8.10;70.32
80248;BME280;69560;52.206;21.018;2023-12-20T05:53:56;99159.33;;;8.08;70.22
80248;BME280;69560;52.206;21.018;2023-12-20T05:56:22;99159.15;;;8.06;70.26
80248;BME280;69560;52.206;21.018;2023-12-20T05:58:49;99160.70;;;8.02;70.25
80248;BME280;69560;52.206;21.018;2023-12-20T06:01:15;99154.41;;;7.98;70.22
80248;BME280;69560;52.206;21.018;2023-12-20T06:03:43;99151.40;;;7.90;70.02
80248;BME280;69560;52.206;21.018;2023-12-20T06:06:09;99147.38;;;7.84;70.12
80248;BME280;69560;52.206;21.018;2023-12-20T06:08:36;99150.56;;;7.81;70.12
80248;BME280;69560;52.206;21.018;2023-12-20T06:11:02;99151.83;;;7.81;70.34
80248;BME280;69560;52.206;21.018;2023-12-20T06:13:29;99154.08;;;7.79;70.21
80248;BME280;69560;52.206;21.018;2023-12-20T06:15:55;99154.55;;;7.78;70.50
80248;BME280;69560;52.206;21.018;2023-12-20T06:18:23;99154.18;;;7.80;70.70
80248;BME280;69560;52.206;21.018;2023-12-20T06:20:50;99156.39;;;7.81;70.55
80248;BME280;69560;52.206;21.018;2023-12-20T06:23:17;99155.55;;;7.82;70.65
80248;BME280;69560;52.206;21.018;2023-12-20T06:25:44;99160.38;;;7.84;70.57
80248;BME280;69560;52.206;21.018;2023-12-20T06:28:10;99160.61;;;7.83;70.60
80248;BME280;69560;52.206;21.018;2023-12-20T06:30:40;99162.95;;;7.87;70.82
80248;BME280;69560;52.206;21.018;2023-12-20T06:33:07;99160.73;;;7.86;70.57
80248;BME280;69560;52.206;21.018;2023-12-20T06:35:33;99164.61;;;7.82;70.45
80248;BME280;69560;52.206;21.018;2023-12-20T06:38:00;99162.77;;;7.80;70.49
80248;BME280;69560;52.206;21.018;2023-12-20T06:40:27;99159.80;;;7.76;70.32
80248;BME280;69560;52.206;21.018;2023-12-20T06:42:54;99159.92;;;7.73;70.42
80248;BME280;69560;52.206;21.018;2023-12-20T06:45:20;99161.41;;;7.72;70.53
80248;BME280;69560;52.206;21.018;2023-12-20T06:47:47;99162.53;;;7.73;70.70
80248;BME280;69560;52.206;21.018;2023-12-20T06:50:13;99165.35;;;7.77;70.83
80248;BME280;69560;52.206;21.018;2023-12-20T06:52:40;99164.14;;;7.81;70.78
80248;BME280;69560;52.206;21.018;2023-12-20T06:55:07;99162.13;;;7.84;70.71
80248;BME280;69560;52.206;21.018;2023-12-20T06:57:33;99157.95;;;7.85;70.78
80248;BME280;69560;52.206;21.018;2023-12-20T07:00:02;99158.25;;;7.83;70.73
80248;BME280;69560;52.206;21.018;2023-12-20T07:02:29;99163.89;;;7.86;70.83
80248;BME280;69560;52.206;21.018;2023-12-20T07:04:56;99163.86;;;7.90;70.80
80248;BME280;69560;52.206;21.018;2023-12-20T07:07:23;99161.89;;;7.91;70.76
80248;BME280;69560;52.206;21.018;2023-12-20T07:09:50;99161.41;;;7.96;70.89
80248;BME280;69560;52.206;21.018;2023-12-20T07:12:17;99162.02;;;8.02;70.98
80248;BME280;69560;52.206;21.018;2023-12-20T07:14:46;99159.52;;;8.04;70.89
80248;BME280;69560;52.206;21.018;2023-12-20T07:17:13;99161.35;;;7.98;70.66
80248;BME280;69560;52.206;21.018;2023-12-20T07:19:42;99159.02;;;8.01;70.75
80248;BME280;69560;52.206;21.018;2023-12-20T07:22:08;99163.78;;;8.05;70.75
80248;BME280;69560;52.206;21.018;2023-12-20T07:24:35;99165.61;;;8.03;70.63
80248;BME280;69560;52.206;21.018;2023-12-20T07:27:01;99169.31;;;8.04;70.60
80248;BME280;69560;52.206;21.018;2023-12-20T07:29:28;99167.35;;;7.99;70.37
80248;BME280;69560;52.206;21.018;2023-12-20T07:31:55;99168.23;;;7.93;70.35
80248;BME280;69560;52.206;21.018;2023-12-20T07:34:21;99162.97;;;7.88;70.32
80248;BME280;69560;52.206;21.018;2023-12-20T07:36:48;99164.02;;;7.84;70.33
80248;BME280;69560;52.206;21.018;2023-12-20T07:39:14;99160.02;;;7.80;70.39
80248;BME280;69560;52.206;21.018;2023-12-20T07:41:41;99165.48;;;7.81;70.63
80248;BME280;69560;52.206;21.018;2023-12-20T07:44:07;99164.59;;;7.80;70.68
80248;BME280;69560;52.206;21.018;2023-12-20T07:46:34;99168.08;;;7.76;70.49
80248;BME280;69560;52.206;21.018;2023-12-20T07:49:00;99168.20;;;7.73;70.53
80248;BME280;69560;52.206;21.018;2023-12-20T07:51:27;99161.48;;;7.66;70.47
80248;BME280;69560;52.206;21.018;2023-12-20T07:53:53;99167.23;;;7.65;70.60
80248;BME280;69560;52.206;21.018;2023-12-20T07:56:20;99164.85;;;7.65;70.76
80248;BME280;69560;52.206;21.018;2023-12-20T07:58:46;99159.59;;;7.66;70.90
80248;BME280;69560;52.206;21.018;2023-12-20T08:01:15;99160.65;;;7.68;70.90
80248;BME280;69560;52.206;21.018;2023-12-20T08:03:42;99160.23;;;7.70;70.95
80248;BME280;69560;52.206;21.018;2023-12-20T08:06:08;99159.45;;;7.72;70.85
80248;BME280;69560;52.206;21.018;2023-12-20T08:08:35;99163.39;;;7.72;70.77
80248;BME280;69560;52.206;21.018;2023-12-20T08:11:01;99165.50;;;7.71;70.79
80248;BME280;69560;52.206;21.018;2023-12-20T08:13:28;99162.90;;;7.71;70.84
80248;BME280;69560;52.206;21.018;2023-12-20T08:15:55;99161.91;;;7.73;70.83
80248;BME280;69560;52.206;21.018;2023-12-20T08:18:22;99159.11;;;7.77;70.92
80248;BME280;69560;52.206;21.018;2023-12-20T08:20:49;99156.48;;;7.80;71.04
80248;BME280;69560;52.206;21.018;2023-12-20T08:23:19;99157.19;;;7.87;71.06
80248;BME280;69560;52.206;21.018;2023-12-20T08:25:47;99156.80;;;7.87;70.82
80248;BME280;69560;52.206;21.018;2023-12-20T08:28:14;99155.09;;;7.83;70.53
80248;BME280;69560;52.206;21.018;2023-12-20T08:30:41;99154.77;;;7.77;70.59
80248;BME280;69560;52.206;21.018;2023-12-20T08:33:08;99151.75;;;7.75;70.51
80248;BME280;69560;52.206;21.018;2023-12-20T08:35:39;99150.14;;;7.72;70.53
80248;BME280;69560;52.206;21.018;2023-12-20T08:38:06;99155.42;;;7.71;70.56
80248;BME280;69560;52.206;21.018;2023-12-20T08:40:33;99155.90;;;7.72;70.81
80248;BME280;69560;52.206;21.018;2023-12-20T08:43:00;99158.41;;;7.77;70.99
80248;BME280;69560;52.206;21.018;2023-12-20T08:45:26;99159.40;;;7.81;70.91
80248;BME280;69560;52.206;21.018;2023-12-20T08:47:52;99160.91;;;7.81;70.69
80248;BME280;69560;52.206;21.018;2023-12-20T08:50:19;99157.41;;;7.80;70.69
80248;BME280;69560;52.206;21.018;2023-12-20T08:52:46;99159.28;;;7.71;70.35
80248;BME280;69560;52.206;21.018;2023-12-20T08:55:12;99158.23;;;7.65;70.51
80248;BME280;69560;52.206;21.018;2023-12-20T08:57:39;99156.27;;;7.64;70.61
80248;BME280;69560;52.206;21.018;2023-12-20T09:00:06;99151.27;;;7.62;70.57
80248;BME280;69560;52.206;21.018;2023-12-20T09:02:34;99150.45;;;7.60;70.60
80248;BME280;69560;52.206;21.018;2023-12-20T09:05:02;99144.55;;;7.56;70.67
80248;BME280;69560;52.206;21.018;2023-12-20T09:07:29;99147.69;;;7.49;70.47
80248;BME280;69560;52.206;21.018;2023-12-20T09:09:58;99141.10;;;7.45;70.58
80248;BME280;69560;52.206;21.018;2023-12-20T09:12:25;99141.54;;;7.43;70.67
80248;BME280;69560;52.206;21.018;2023-12-20T09:14:52;99137.21;;;7.44;70.91
80248;BME280;69560;52.206;21.018;2023-12-20T09:17:18;99135.42;;;7.45;71.00
80248;BME280;69560;52.206;21.018;2023-12-20T09:19:45;99136.23;;;7.46;71.06
80248;BME280;69560;52.206;21.018;2023-12-20T09:22:12;99131.23;;;7.51;71.26
80248;BME280;69560;52.206;21.018;2023-12-20T09:24:38;99129.66;;;7.56;71.18
80248;BME280;69560;52.206;21.018;2023-12-20T09:27:05;99122.73;;;7.57;71.08
80248;BME280;69560;52.206;21.018;2023-12-20T09:29:32;99121.14;;;7.61;71.17
80248;BME280;69560;52.206;21.018;2023-12-20T09:31:58;99114.16;;;7.58;70.87
80248;BME280;69560;52.206;21.018;2023-12-20T09:34:25;99111.09;;;7.52;70.69
80248;BME280;69560;52.206;21.018;2023-12-20T09:36:52;99106.36;;;7.47;70.86
80248;BME280;69560;52.206;21.018;2023-12-20T09:39:19;99106.59;;;7.47;71.03
80248;BME280;69560;52.206;21.018;2023-12-20T09:41:55;99105.39;;;7.52;71.16
80248;BME280;69560;52.206;21.018;2023-12-20T09:44:25;99103.17;;;7.51;71.02
80248;BME280;69560;52.206;21.018;2023-12-20T09:46:52;99104.08;;;7.54;71.36
80248;BME280;69560;52.206;21.018;2023-12-20T09:49:20;99101.37;;;7.57;71.32
80248;BME280;69560;52.206;21.018;2023-12-20T09:51:47;99101.80;;;7.60;71.19
80248;BME280;69560;52.206;21.018;2023-12-20T09:54:16;99104.02;;;7.61;71.17
80248;BME280;69560;52.206;21.018;2023-12-20T09:56:44;99101.52;;;7.62;71.16
80248;BME280;69560;52.206;21.018;2023-12-20T09:59:10;99100.66;;;7.63;71.18
80248;BME280;69560;52.206;21.018;2023-12-20T10:01:39;99099.98;;;7.60;71.06
80248;BME280;69560;52.206;21.018;2023-12-20T10:04:08;99094.36;;;7.57;71.05
80248;BME280;69560;52.206;21.018;2023-12-20T10:06:42;99095.16;;;7.59;71.18
80248;BME280;69560;52.206;21.018;2023-12-20T10:09:10;99091.89;;;7.56;70.89
80248;BME280;69560;52.206;21.018;2023-12-20T10:11:37;99094.98;;;7.51;71.01
80248;BME280;69560;52.206;21.018;2023-12-20T10:14:05;99096.21;;;7.49;71.06
80248;BME280;69560;52.206;21.018;2023-12-20T10:16:33;99096.91;;;7.48;71.17
80248;BME280;69560;52.206;21.018;2023-12-20T10:19:00;99098.95;;;7.53;71.49
80248;BME280;69560;52.206;21.018;2023-12-20T10:21:30;99095.92;;;7.57;71.39
80248;BME280;69560;52.206;21.018;2023-12-20T10:23:57;99089.40;;;7.60;71.38
80248;BME280;69560;52.206;21.018;2023-12-20T10:26:27;99089.17;;;7.66;71.59
80248;BME280;69560;52.206;21.018;2023-12-20T10:28:55;99089.84;;;7.69;71.51
80248;BME280;69560;52.206;21.018;2023-12-20T10:31:31;99085.02;;;7.73;71.59
80248;BME280;69560;52.206;21.018;2023-12-20T10:33:59;99081.48;;;7.75;71.33
80248;BME280;69560;52.206;21.018;2023-12-20T10:36:28;99079.11;;;7.75;71.20
80248;BME280;69560;52.206;21.018;2023-12-20T10:38:56;99081.16;;;7.73;71.17
80248;BME280;69560;52.206;21.018;2023-12-20T10:41:30;99072.40;;;7.67;70.93
80248;BME280;69560;52.206;21.018;2023-12-20T10:44:01;99070.72;;;7.64;71.02
80248;BME280;69560;52.206;21.018;2023-12-20T10:46:29;99073.42;;;7.65;71.20
80248;BME280;69560;52.206;21.018;2023-12-20T10:48:57;99074.25;;;7.70;71.30
80248;BME280;69560;52.206;21.018;2023-12-20T10:51:24;99068.92;;;7.72;71.29
80248;BME280;69560;52.206;21.018;2023-12-20T10:53:53;99075.61;;;7.72;71.10
80248;BME280;69560;52.206;21.018;2023-12-20T10:56:20;99076.54;;;7.70;71.22
80248;BME280;69560;52.206;21.018;2023-12-20T10:58:52;99071.14;;;7.67;71.08
80248;BME280;69560;52.206;21.018;2023-12-20T11:01:20;99073.21;;;7.69;71.27
80248;BME280;69560;52.206;21.018;2023-12-20T11:03:52;99070.55;;;7.71;71.22
80248;BME280;69560;52.206;21.018;2023-12-20T11:09:12;99060.21;;;7.77;71.36
80248;BME280;69560;52.206;21.018;2023-12-20T11:14:37;99043.02;;;7.77;71.36
80248;BME280;69560;52.206;21.018;2023-12-20T11:17:09;99039.77;;;7.76;71.03
80248;BME280;69560;52.206;21.018;2023-12-20T11:22:25;99028.79;;;7.72;71.06
80248;BME280;69560;52.206;21.018;2023-12-20T11:24:53;99027.67;;;7.74;71.23
80248;BME280;69560;52.206;21.018;2023-12-20T11:27:20;99022.50;;;7.75;71.24
80248;BME280;69560;52.206;21.018;2023-12-20T11:29:53;99025.15;;;7.73;71.01
80248;BME280;69560;52.206;21.018;2023-12-20T11:34:57;99018.85;;;7.66;70.93
80248;BME280;69560;52.206;21.018;2023-12-20T11:37:32;99016.23;;;7.65;71.17
80248;BME280;69560;52.206;21.018;2023-12-20T11:42:39;99014.46;;;7.69;71.18
80248;BME280;69560;52.206;21.018;2023-12-20T11:45:13;99008.73;;;7.70;71.20
80248;BME280;69560;52.206;21.018;2023-12-20T11:47:47;99005.83;;;7.65;70.96
80248;BME280;69560;52.206;21.018;2023-12-20T11:50:19;99006.88;;;7.61;71.08
80248;BME280;69560;52.206;21.018;2023-12-20T11:52:46;98998.63;;;7.57;71.04
80248;BME280;69560;52.206;21.018;2023-12-20T11:55:13;99000.88;;;7.54;71.20
80248;BME280;69560;52.206;21.018;2023-12-20T11:57:40;98994.19;;;7.53;71.13
80248;BME280;69560;52.206;21.018;2023-12-20T12:00:06;98995.16;;;7.50;71.09
80248;BME280;69560;52.206;21.018;2023-12-20T12:02:33;98988.86;;;7.50;71.32
80248;BME280;69560;52.206;21.018;2023-12-20T12:05:00;98985.80;;;7.51;71.32
80248;BME280;69560;52.206;21.018;2023-12-20T12:07:26;98981.13;;;7.50;71.26
80248;BME280;69560;52.206;21.018;2023-12-20T12:09:53;98981.13;;;7.48;71.18
80248;BME280;69560;52.206;21.018;2023-12-20T12:12:19;98982.72;;;7.44;71.09
80248;BME280;69560;52.206;21.018;2023-12-20T12:14:48;98980.98;;;7.45;71.46
80248;BME280;69560;52.206;21.018;2023-12-20T12:17:15;98985.49;;;7.46;71.31
80248;BME280;69560;52.206;21.018;2023-12-20T12:19:43;98984.11;;;7.41;71.35
80248;BME280;69560;52.206;21.018;2023-12-20T12:22:11;98977.52;;;7.37;71.21
80248;BME280;69560;52.206;21.018;2023-12-20T12:24:43;98979.92;;;7.34;71.23
80248;BME280;69560;52.206;21.018;2023-12-20T12:27:11;98972.23;;;7.36;71.38
80248;BME280;69560;52.206;21.018;2023-12-20T12:29:38;98975.74;;;7.41;71.70
80248;BME280;69560;52.206;21.018;2023-12-20T12:32:09;98968.95;;;7.46;71.69
80248;BME280;69560;52.206;21.018;2023-12-20T12:34:36;98966.98;;;7.46;71.50
80248;BME280;69560;52.206;21.018;2023-12-20T12:37:06;98969.59;;;7.46;71.41
80248;BME280;69560;52.206;21.018;2023-12-20T12:39:33;98960.85;;;7.48;71.64
80248;BME280;69560;52.206;21.018;2023-12-20T12:42:00;98962.15;;;7.59;72.00
80248;BME280;69560;52.206;21.018;2023-12-20T12:44:26;98957.77;;;7.70;72.11
80248;BME280;69560;52.206;21.018;2023-12-20T12:46:53;98953.63;;;7.82;72.21
80248;BME280;69560;52.206;21.018;2023-12-20T12:49:20;98953.64;;;7.90;71.90
80248;BME280;69560;52.206;21.018;2023-12-20T12:51:47;98955.48;;;7.84;71.22
80248;BME280;69560;52.206;21.018;2023-12-20T12:54:14;98963.02;;;7.82;71.22
80248;BME280;69560;52.206;21.018;2023-12-20T12:56:44;98969.84;;;7.78;70.87
80248;BME280;69560;52.206;21.018;2023-12-20T12:59:10;98966.77;;;7.69;70.83
80248;BME280;69560;52.206;21.018;2023-12-20T13:01:37;98969.70;;;7.65;70.94
80248;BME280;69560;52.206;21.018;2023-12-20T13:04:05;98964.57;;;7.64;70.93
80248;BME280;69560;52.206;21.018;2023-12-20T13:06:37;98956.17;;;7.60;70.84
80248;BME280;69560;52.206;21.018;2023-12-20T13:09:04;98958.92;;;7.59;70.85
80248;BME280;69560;52.206;21.018;2023-12-20T13:11:31;98961.71;;;7.62;71.02
80248;BME280;69560;52.206;21.018;2023-12-20T13:13:58;98957.17;;;7.65;71.21